sensor_id;sensor_type;location;lat;lon;timestamp;temperature;humidity
37478;DHT22;23334;54.316;10.182;2023-03-31T00:07:54;10.20;99.90
37478;DHT22;23334;54.316;10.182;2023-03-31T00:42:15;10.20;99.90
37478;DHT22;23334;54.316;10.182;2023-03-31T00:47:51;10.20;99.90
37478;DHT22;23334;54.316;10.182;2023-03-31T00:50:27;10.20;99.90
37478;DHT22;23334;54.316;10.182;2023-03-31T00:52:57;10.20;99.90
37478;DHT22;23334;54.316;10.182;2023-03-31T00:55:33;10.20;99.90
37478;DHT22;23334;54.316;10.182;2023-03-31T00:58:00;10.20;99.90
37478;DHT22;23334;54.316;10.182;2023-03-31T01:00:26;10.20;99.90
37478;DHT22;23334;54.316;10.182;2023-03-31T01:05:37;10.10;99.90
37478;DHT22;23334;54.316;10.182;2023-03-31T01:08:04;10.20;99.90
37478;DHT22;23334;54.316;10.182;2023-03-31T01:10:34;10.20;99.90
37478;DHT22;23334;54.316;10.182;2023-03-31T01:26:42;10.30;99.90
37478;DHT22;23334;54.316;10.182;2023-03-31T01:32:24;10.30;99.90
37478;DHT22;23334;54.316;10.182;2023-03-31T01:44:01;10.30;99.90
37478;DHT22;23334;54.316;10.182;2023-03-31T01:46:35;10.30;99.90
37478;DHT22;23334;54.316;10.182;2023-03-31T01:49:18;10.30;99.90
37478;DHT22;23334;54.316;10.182;2023-03-31T01:52:02;10.30;99.90
37478;DHT22;23334;54.316;10.182;2023-03-31T01:59:55;10.30;99.90
37478;DHT22;23334;54.316;10.182;2023-03-31T02:02:27;10.30;99.90
37478;DHT22;23334;54.316;10.182;2023-03-31T02:04:59;10.30;99.90
37478;DHT22;23334;54.316;10.182;2023-03-31T02:07:36;10.30;99.90
37478;DHT22;23334;54.316;10.182;2023-03-31T02:10:08;10.30;99.90
37478;DHT22;23334;54.316;10.182;2023-03-31T02:12:39;10.30;99.90
37478;DHT22;23334;54.316;10.182;2023-03-31T02:15:09;10.30;99.90
37478;DHT22;23334;54.316;10.182;2023-03-31T02:17:37;10.30;99.90
37478;DHT22;23334;54.316;10.182;2023-03-31T02:20:08;10.30;99.90
37478;DHT22;23334;54.316;10.182;2023-03-31T02:22:38;10.30;99.90
37478;DHT22;23334;54.316;10.182;2023-03-31T02:25:08;10.30;99.90
37478;DHT22;23334;54.316;10.182;2023-03-31T02:27:40;10.30;99.90
37478;DHT22;23334;54.316;10.182;2023-03-31T02:30:08;10.30;99.90
37478;DHT22;23334;54.316;10.182;2023-03-31T02:32:37;10.30;99.90
37478;DHT22;23334;54.316;10.182;2023-03-31T02:35:04;10.30;99.90
37478;DHT22;23334;54.316;10.182;2023-03-31T02:39:59;10.30;99.90
37478;DHT22;23334;54.316;10.182;2023-03-31T02:49:50;10.20;99.90
37478;DHT22;23334;54.316;10.182;2023-03-31T02:55:31;10.30;99.90
37478;DHT22;23334;54.316;10.182;2023-03-31T03:03:37;10.20;99.90
37478;DHT22;23334;54.316;10.182;2023-03-31T03:09:17;10.20;99.90
37478;DHT22;23334;54.316;10.182;2023-03-31T03:15:09;10.10;99.90
37478;DHT22;23334;54.316;10.182;2023-03-31T03:17:41;10.20;99.90
37478;DHT22;23334;54.316;10.182;2023-03-31T03:20:08;10.10;99.90
37478;DHT22;23334;54.316;10.182;2023-03-31T03:22:35;10.10;99.90
37478;DHT22;23334;54.316;10.182;2023-03-31T03:25:03;10.20;99.90
37478;DHT22;23334;54.316;10.182;2023-03-31T03:27:29;10.10;99.90
37478;DHT22;23334;54.316;10.182;2023-03-31T03:29:54;10.10;99.90
37478;DHT22;23334;54.316;10.182;2023-03-31T03:34:46;10.10;99.90
37478;DHT22;23334;54.316;10.182;2023-03-31T03:37:11;10.00;99.90
37478;DHT22;23334;54.316;10.182;2023-03-31T03:39:37;10.00;99.90
37478;DHT22;23334;54.316;10.182;2023-03-31T03:42:03;10.00;99.90
37478;DHT22;23334;54.316;10.182;2023-03-31T03:44:28;10.20;99.90
37478;DHT22;23334;54.316;10.182;2023-03-31T03:49:20;10.10;99.90
37478;DHT22;23334;54.316;10.182;2023-03-31T03:51:45;10.00;99.90
37478;DHT22;23334;54.316;10.182;2023-03-31T03:54:11;10.10;99.90
37478;DHT22;23334;54.316;10.182;2023-03-31T04:01:28;10.70;99.90
37478;DHT22;23334;54.316;10.182;2023-03-31T04:03:54;9.80;99.90
37478;DHT22;23334;54.316;10.182;2023-03-31T04:06:19;10.10;99.90
37478;DHT22;23334;54.316;10.182;2023-03-31T04:08:45;9.90;99.90
37478;DHT22;23334;54.316;10.182;2023-03-31T04:11:15;10.40;99.90
37478;DHT22;23334;54.316;10.182;2023-03-31T04:13:42;9.90;99.90
37478;DHT22;23334;54.316;10.182;2023-03-31T04:16:07;10.10;99.90
37478;DHT22;23334;54.316;10.182;2023-03-31T04:18:33;9.90;99.90
37478;DHT22;23334;54.316;10.182;2023-03-31T04:23:32;10.20;99.90
37478;DHT22;23334;54.316;10.182;2023-03-31T04:25:58;10.10;99.90
37478;DHT22;23334;54.316;10.182;2023-03-31T04:33:19;10.10;99.90
37478;DHT22;23334;54.316;10.182;2023-03-31T04:35:45;10.10;99.90
37478;DHT22;23334;54.316;10.182;2023-03-31T04:38:18;10.00;99.90
37478;DHT22;23334;54.316;10.182;2023-03-31T04:40:48;9.90;99.90
37478;DHT22;23334;54.316;10.182;2023-03-31T04:43:14;10.00;99.90
37478;DHT22;23334;54.316;10.182;2023-03-31T04:45:40;10.10;99.90
37478;DHT22;23334;54.316;10.182;2023-03-31T04:48:07;9.90;99.90
37478;DHT22;23334;54.316;10.182;2023-03-31T04:50:33;9.90;99.90
37478;DHT22;23334;54.316;10.182;2023-03-31T04:52:58;9.80;99.90
37478;DHT22;23334;54.316;10.182;2023-03-31T04:55:24;10.10;99.90
37478;DHT22;23334;54.316;10.182;2023-03-31T05:00:16;10.10;99.90
37478;DHT22;23334;54.316;10.182;2023-03-31T05:02:42;10.10;99.90
37478;DHT22;23334;54.316;10.182;2023-03-31T05:05:08;10.10;99.90
37478;DHT22;23334;54.316;10.182;2023-03-31T05:07:34;10.10;99.90
37478;DHT22;23334;54.316;10.182;2023-03-31T05:12:26;10.10;99.90
37478;DHT22;23334;54.316;10.182;2023-03-31T05:14:51;10.10;99.90
37478;DHT22;23334;54.316;10.182;2023-03-31T05:17:17;9.90;99.90
37478;DHT22;23334;54.316;10.182;2023-03-31T05:19:43;9.80;99.90
37478;DHT22;23334;54.316;10.182;2023-03-31T05:22:08;9.90;99.90
37478;DHT22;23334;54.316;10.182;2023-03-31T05:24:34;10.10;99.90
37478;DHT22;23334;54.316;10.182;2023-03-31T05:29:26;10.60;99.90
37478;DHT22;23334;54.316;10.182;2023-03-31T05:31:51;10.10;99.90
37478;DHT22;23334;54.316;10.182;2023-03-31T05:36:46;10.10;99.90
37478;DHT22;23334;54.316;10.182;2023-03-31T05:39:13;9.80;99.90
37478;DHT22;23334;54.316;10.182;2023-03-31T05:41:38;9.90;99.90
37478;DHT22;23334;54.316;10.182;2023-03-31T05:44:04;9.90;99.90
37478;DHT22;23334;54.316;10.182;2023-03-31T05:46:30;10.10;99.90
37478;DHT22;23334;54.316;10.182;2023-03-31T05:48:55;9.90;99.90
37478;DHT22;23334;54.316;10.182;2023-03-31T05:51:22;10.00;99.90
37478;DHT22;23334;54.316;10.182;2023-03-31T05:53:47;10.00;99.90
37478;DHT22;23334;54.316;10.182;2023-03-31T05:58:39;10.20;99.90
37478;DHT22;23334;54.316;10.182;2023-03-31T06:01:07;9.80;99.90
37478;DHT22;23334;54.316;10.182;2023-03-31T06:03:35;10.30;99.90
37478;DHT22;23334;54.316;10.182;2023-03-31T06:06:01;10.30;99.90
37478;DHT22;23334;54.316;10.182;2023-03-31T06:08:28;10.30;99.90
37478;DHT22;23334;54.316;10.182;2023-03-31T06:10:53;9.90;99.90
37478;DHT22;23334;54.316;10.182;2023-03-31T06:13:19;10.10;99.90
37478;DHT22;23334;54.316;10.182;2023-03-31T06:15:58;10.50;99.90
37478;DHT22;23334;54.316;10.182;2023-03-31T06:18:26;10.30;99.90
37478;DHT22;23334;54.316;10.182;2023-03-31T06:20:53;10.30;99.90
37478;DHT22;23334;54.316;10.182;2023-03-31T06:25:45;10.60;99.90
37478;DHT22;23334;54.316;10.182;2023-03-31T06:30:36;10.60;99.90
37478;DHT22;23334;54.316;10.182;2023-03-31T06:33:02;10.50;99.90
37478;DHT22;23334;54.316;10.182;2023-03-31T06:35:28;10.70;99.90
37478;DHT22;23334;54.316;10.182;2023-03-31T06:37:53;10.60;99.90
37478;DHT22;23334;54.316;10.182;2023-03-31T06:40:19;10.70;99.90
37478;DHT22;23334;54.316;10.182;2023-03-31T06:42:44;11.20;99.90
37478;DHT22;23334;54.316;10.182;2023-03-31T06:45:10;10.90;99.90
37478;DHT22;23334;54.316;10.182;2023-03-31T06:47:35;10.10;99.90
37478;DHT22;23334;54.316;10.182;2023-03-31T06:50:06;10.80;99.90
37478;DHT22;23334;54.316;10.182;2023-03-31T06:52:32;11.00;99.90
37478;DHT22;23334;54.316;10.182;2023-03-31T06:54:58;11.00;99.90
37478;DHT22;23334;54.316;10.182;2023-03-31T06:57:28;11.50;99.90
37478;DHT22;23334;54.316;10.182;2023-03-31T06:59:54;10.90;99.90
37478;DHT22;23334;54.316;10.182;2023-03-31T07:02:21;10.80;99.90
37478;DHT22;23334;54.316;10.182;2023-03-31T07:04:46;10.90;99.90
37478;DHT22;23334;54.316;10.182;2023-03-31T07:07:12;10.90;99.90
37478;DHT22;23334;54.316;10.182;2023-03-31T07:09:37;10.70;99.90
37478;DHT22;23334;54.316;10.182;2023-03-31T07:16:56;11.00;99.90
37478;DHT22;23334;54.316;10.182;2023-03-31T07:19:21;11.20;99.90
37478;DHT22;23334;54.316;10.182;2023-03-31T07:26:39;11.40;99.90
37478;DHT22;23334;54.316;10.182;2023-03-31T07:31:30;11.40;99.90
37478;DHT22;23334;54.316;10.182;2023-03-31T07:33:56;11.30;99.90
37478;DHT22;23334;54.316;10.182;2023-03-31T07:36:21;11.50;99.90
37478;DHT22;23334;54.316;10.182;2023-03-31T07:38:47;12.00;99.90
37478;DHT22;23334;54.316;10.182;2023-03-31T07:41:16;11.50;99.90
37478;DHT22;23334;54.316;10.182;2023-03-31T07:43:42;11.50;99.90
37478;DHT22;23334;54.316;10.182;2023-03-31T07:46:28;11.90;99.90
37478;DHT22;23334;54.316;10.182;2023-03-31T07:48:55;11.90;99.90
37478;DHT22;23334;54.316;10.182;2023-03-31T07:51:23;12.10;99.90
37478;DHT22;23334;54.316;10.182;2023-03-31T07:53:49;12.30;99.90
37478;DHT22;23334;54.316;10.182;2023-03-31T07:58:43;12.70;99.90
37478;DHT22;23334;54.316;10.182;2023-03-31T08:01:08;12.60;99.90
37478;DHT22;23334;54.316;10.182;2023-03-31T08:03:34;12.60;99.90
37478;DHT22;23334;54.316;10.182;2023-03-31T08:05:59;13.00;99.90
37478;DHT22;23334;54.316;10.182;2023-03-31T08:13:17;13.10;99.90
37478;DHT22;23334;54.316;10.182;2023-03-31T08:15:43;13.30;99.90
37478;DHT22;23334;54.316;10.182;2023-03-31T08:18:08;13.10;99.90
37478;DHT22;23334;54.316;10.182;2023-03-31T08:20:34;12.90;99.90
37478;DHT22;23334;54.316;10.182;2023-03-31T08:22:59;13.60;99.90
37478;DHT22;23334;54.316;10.182;2023-03-31T08:30:18;13.20;99.90
37478;DHT22;23334;54.316;10.182;2023-03-31T08:32:44;13.30;99.90
37478;DHT22;23334;54.316;10.182;2023-03-31T08:35:10;14.20;99.90
37478;DHT22;23334;54.316;10.182;2023-03-31T08:40:03;15.00;99.90
37478;DHT22;23334;54.316;10.182;2023-03-31T08:42:40;14.50;99.90
37478;DHT22;23334;54.316;10.182;2023-03-31T08:45:30;14.60;99.90
37478;DHT22;23334;54.316;10.182;2023-03-31T08:48:03;14.60;99.90
37478;DHT22;23334;54.316;10.182;2023-03-31T08:50:32;14.60;99.90
37478;DHT22;23334;54.316;10.182;2023-03-31T08:55:52;14.80;99.90
37478;DHT22;23334;54.316;10.182;2023-03-31T08:58:39;15.00;99.90
37478;DHT22;23334;54.316;10.182;2023-03-31T09:04:26;14.60;99.90
37478;DHT22;23334;54.316;10.182;2023-03-31T09:10:02;14.30;99.90
37478;DHT22;23334;54.316;10.182;2023-03-31T09:15:49;14.00;99.90
37478;DHT22;23334;54.316;10.182;2023-03-31T09:20:49;13.90;99.90
37478;DHT22;23334;54.316;10.182;2023-03-31T09:23:25;14.00;99.90
37478;DHT22;23334;54.316;10.182;2023-03-31T09:25:52;14.10;99.90
37478;DHT22;23334;54.316;10.182;2023-03-31T09:28:21;14.00;99.90
37478;DHT22;23334;54.316;10.182;2023-03-31T09:30:48;13.90;99.90
37478;DHT22;23334;54.316;10.182;2023-03-31T09:33:21;14.10;99.90
37478;DHT22;23334;54.316;10.182;2023-03-31T09:35:48;14.10;99.90
37478;DHT22;23334;54.316;10.182;2023-03-31T09:38:14;14.00;99.90
37478;DHT22;23334;54.316;10.182;2023-03-31T09:40:41;14.50;99.90
37478;DHT22;23334;54.316;10.182;2023-03-31T09:43:23;13.80;99.90
37478;DHT22;23334;54.316;10.182;2023-03-31T09:45:50;13.90;99.90
37478;DHT22;23334;54.316;10.182;2023-03-31T09:48:20;13.80;99.90
37478;DHT22;23334;54.316;10.182;2023-03-31T09:50:58;13.70;99.90
37478;DHT22;23334;54.316;10.182;2023-03-31T09:56:54;14.60;99.90
37478;DHT22;23334;54.316;10.182;2023-03-31T09:59:31;14.40;99.90
37478;DHT22;23334;54.316;10.182;2023-03-31T10:02:01;14.40;99.90
37478;DHT22;23334;54.316;10.182;2023-03-31T10:04:29;14.20;99.90
37478;DHT22;23334;54.316;10.182;2023-03-31T10:06:56;14.00;99.90
37478;DHT22;23334;54.316;10.182;2023-03-31T10:09:29;14.90;99.90
37478;DHT22;23334;54.316;10.182;2023-03-31T10:12:07;15.00;99.90
37478;DHT22;23334;54.316;10.182;2023-03-31T10:14:46;13.90;99.90
37478;DHT22;23334;54.316;10.182;2023-03-31T10:17:19;14.00;99.90
37478;DHT22;23334;54.316;10.182;2023-03-31T10:19:53;13.90;99.90
37478;DHT22;23334;54.316;10.182;2023-03-31T10:24:47;13.70;99.90
37478;DHT22;23334;54.316;10.182;2023-03-31T10:27:24;13.50;99.90
37478;DHT22;23334;54.316;10.182;2023-03-31T10:30:03;13.40;99.90
37478;DHT22;23334;54.316;10.182;2023-03-31T10:32:37;13.50;99.90
37478;DHT22;23334;54.316;10.182;2023-03-31T10:35:25;13.20;99.90
37478;DHT22;23334;54.316;10.182;2023-03-31T10:37:55;13.20;99.90
37478;DHT22;23334;54.316;10.182;2023-03-31T10:40:27;12.80;99.90
37478;DHT22;23334;54.316;10.182;2023-03-31T10:43:36;12.90;99.90
37478;DHT22;23334;54.316;10.182;2023-03-31T10:48:34;13.20;99.90
37478;DHT22;23334;54.316;10.182;2023-03-31T10:53:46;13.80;99.90
37478;DHT22;23334;54.316;10.182;2023-03-31T11:02:00;14.20;99.90
37478;DHT22;23334;54.316;10.182;2023-03-31T11:07:22;14.40;99.90
37478;DHT22;23334;54.316;10.182;2023-03-31T11:15:52;14.20;99.90
37478;DHT22;23334;54.316;10.182;2023-03-31T11:26:39;13.30;99.90
37478;DHT22;23334;54.316;10.182;2023-03-31T11:29:20;13.10;99.90
37478;DHT22;23334;54.316;10.182;2023-03-31T11:32:20;12.50;99.90
37478;DHT22;23334;54.316;10.182;2023-03-31T11:35:12;13.10;99.90
37478;DHT22;23334;54.316;10.182;2023-03-31T11:37:56;13.10;99.90
37478;DHT22;23334;54.316;10.182;2023-03-31T11:40:46;13.20;99.90
37478;DHT22;23334;54.316;10.182;2023-03-31T11:43:26;13.50;99.90
37478;DHT22;23334;54.316;10.182;2023-03-31T11:46:14;13.70;99.90
37478;DHT22;23334;54.316;10.182;2023-03-31T11:48:47;13.70;99.90
37478;DHT22;23334;54.316;10.182;2023-03-31T11:53:53;14.00;99.90
37478;DHT22;23334;54.316;10.182;2023-03-31T11:56:21;14.00;99.90
37478;DHT22;23334;54.316;10.182;2023-03-31T11:58:58;14.00;99.90
37478;DHT22;23334;54.316;10.182;2023-03-31T12:06:35;14.40;99.90
37478;DHT22;23334;54.316;10.182;2023-03-31T12:12:27;15.40;99.90
37478;DHT22;23334;54.316;10.182;2023-03-31T12:14:40;14.30;99.90
37478;DHT22;23334;54.316;10.182;2023-03-31T12:17:18;14.20;99.90
37478;DHT22;23334;54.316;10.182;2023-03-31T12:19:47;14.00;99.90
37478;DHT22;23334;54.316;10.182;2023-03-31T12:22:33;13.90;99.90
37478;DHT22;23334;54.316;10.182;2023-03-31T12:24:59;14.20;99.90
37478;DHT22;23334;54.316;10.182;2023-03-31T12:27:51;14.60;99.90
37478;DHT22;23334;54.316;10.182;2023-03-31T12:30:31;14.10;99.90
37478;DHT22;23334;54.316;10.182;2023-03-31T12:33:05;15.10;99.90
37478;DHT22;23334;54.316;10.182;2023-03-31T12:41:09;14.20;99.90
37478;DHT22;23334;54.316;10.182;2023-03-31T12:44:15;14.10;99.90
37478;DHT22;23334;54.316;10.182;2023-03-31T12:50:14;14.20;99.90
37478;DHT22;23334;54.316;10.182;2023-03-31T12:52:56;14.30;99.90
37478;DHT22;23334;54.316;10.182;2023-03-31T13:03:52;14.70;99.90
37478;DHT22;23334;54.316;10.182;2023-03-31T13:08:55;14.80;99.90
37478;DHT22;23334;54.316;10.182;2023-03-31T13:14:00;15.00;99.90
37478;DHT22;23334;54.316;10.182;2023-03-31T13:16:28;15.00;99.90
37478;DHT22;23334;54.316;10.182;2023-03-31T13:18:54;14.80;99.90
37478;DHT22;23334;54.316;10.182;2023-03-31T13:21:21;14.60;99.90
37478;DHT22;23334;54.316;10.182;2023-03-31T13:23:47;14.40;99.90
37478;DHT22;23334;54.316;10.182;2023-03-31T13:34:42;14.60;99.90
37478;DHT22;23334;54.316;10.182;2023-03-31T13:37:18;15.20;99.90
37478;DHT22;23334;54.316;10.182;2023-03-31T13:42:48;14.20;99.90
37478;DHT22;23334;54.316;10.182;2023-03-31T13:54:31;14.10;99.90
37478;DHT22;23334;54.316;10.182;2023-03-31T13:57:24;13.80;99.90
37478;DHT22;23334;54.316;10.182;2023-03-31T14:02:57;14.30;99.90
37478;DHT22;23334;54.316;10.182;2023-03-31T14:08:40;14.50;99.90
37478;DHT22;23334;54.316;10.182;2023-03-31T14:11:25;14.90;99.90
37478;DHT22;23334;54.316;10.182;2023-03-31T14:14:04;15.50;99.90
37478;DHT22;23334;54.316;10.182;2023-03-31T14:16:37;15.20;99.90
37478;DHT22;23334;54.316;10.182;2023-03-31T14:19:28;15.00;99.90
37478;DHT22;23334;54.316;10.182;2023-03-31T14:22:16;15.40;99.90
37478;DHT22;23334;54.316;10.182;2023-03-31T14:25:11;14.90;99.90
37478;DHT22;23334;54.316;10.182;2023-03-31T14:30:37;14.60;99.90
37478;DHT22;23334;54.316;10.182;2023-03-31T14:33:31;14.40;99.90
37478;DHT22;23334;54.316;10.182;2023-03-31T14:36:26;14.30;99.90
37478;DHT22;23334;54.316;10.182;2023-03-31T14:39:00;14.10;99.90
37478;DHT22;23334;54.316;10.182;2023-03-31T14:41:27;13.90;99.90
37478;DHT22;23334;54.316;10.182;2023-03-31T14:43:59;14.70;99.90
37478;DHT22;23334;54.316;10.182;2023-03-31T14:46:28;14.00;99.90
37478;DHT22;23334;54.316;10.182;2023-03-31T14:48:54;13.90;99.90
37478;DHT22;23334;54.316;10.182;2023-03-31T14:51:27;13.80;99.90
37478;DHT22;23334;54.316;10.182;2023-03-31T14:53:58;13.60;99.90
37478;DHT22;23334;54.316;10.182;2023-03-31T14:56:30;13.60;99.90
37478;DHT22;23334;54.316;10.182;2023-03-31T14:59:01;13.30;99.90
37478;DHT22;23334;54.316;10.182;2023-03-31T15:01:32;13.30;99.90
37478;DHT22;23334;54.316;10.182;2023-03-31T15:04:08;13.80;99.90
37478;DHT22;23334;54.316;10.182;2023-03-31T15:06:35;13.00;99.90
37478;DHT22;23334;54.316;10.182;2023-03-31T15:09:04;12.90;99.90
37478;DHT22;23334;54.316;10.182;2023-03-31T15:13:57;12.70;99.90
37478;DHT22;23334;54.316;10.182;2023-03-31T15:18:56;12.40;99.90
37478;DHT22;23334;54.316;10.182;2023-03-31T15:21:24;12.10;99.90
37478;DHT22;23334;54.316;10.182;2023-03-31T15:23:51;11.60;99.90
37478;DHT22;23334;54.316;10.182;2023-03-31T15:26:23;12.00;99.90
37478;DHT22;23334;54.316;10.182;2023-03-31T15:28:57;12.00;99.90
37478;DHT22;23334;54.316;10.182;2023-03-31T15:31:25;11.80;99.90
37478;DHT22;23334;54.316;10.182;2023-03-31T15:33:51;11.30;99.90
37478;DHT22;23334;54.316;10.182;2023-03-31T15:36:19;11.80;99.90
37478;DHT22;23334;54.316;10.182;2023-03-31T15:38:46;11.40;99.90
37478;DHT22;23334;54.316;10.182;2023-03-31T15:41:13;11.20;99.90
37478;DHT22;23334;54.316;10.182;2023-03-31T15:46:10;11.90;99.90
37478;DHT22;23334;54.316;10.182;2023-03-31T15:48:47;11.80;99.90
37478;DHT22;23334;54.316;10.182;2023-03-31T15:51:17;14.50;99.90
37478;DHT22;23334;54.316;10.182;2023-03-31T15:53:47;11.90;99.90
37478;DHT22;23334;54.316;10.182;2023-03-31T15:56:39;11.90;99.90
37478;DHT22;23334;54.316;10.182;2023-03-31T15:59:27;11.90;99.90
37478;DHT22;23334;54.316;10.182;2023-03-31T16:01:54;11.80;99.90
37478;DHT22;23334;54.316;10.182;2023-03-31T16:04:20;11.90;99.90
37478;DHT22;23334;54.316;10.182;2023-03-31T16:07:03;12.00;99.90
37478;DHT22;23334;54.316;10.182;2023-03-31T16:09:48;12.00;99.90
37478;DHT22;23334;54.316;10.182;2023-03-31T16:12:32;11.00;99.90
37478;DHT22;23334;54.316;10.182;2023-03-31T16:15:12;12.10;99.90
37478;DHT22;23334;54.316;10.182;2023-03-31T16:17:51;12.00;99.90
37478;DHT22;23334;54.316;10.182;2023-03-31T16:20:28;12.00;99.90
37478;DHT22;23334;54.316;10.182;2023-03-31T16:22:57;12.00;99.90
37478;DHT22;23334;54.316;10.182;2023-03-31T16:25:26;12.00;99.90
37478;DHT22;23334;54.316;10.182;2023-03-31T16:27:57;10.30;99.90
37478;DHT22;23334;54.316;10.182;2023-03-31T16:30:38;11.50;99.90
37478;DHT22;23334;54.316;10.182;2023-03-31T16:33:09;11.70;99.90
37478;DHT22;23334;54.316;10.182;2023-03-31T16:35:43;14.10;99.90
37478;DHT22;23334;54.316;10.182;2023-03-31T16:38:11;11.70;99.90
37478;DHT22;23334;54.316;10.182;2023-03-31T16:40:38;11.10;99.90
37478;DHT22;23334;54.316;10.182;2023-03-31T16:43:13;11.50;99.90
37478;DHT22;23334;54.316;10.182;2023-03-31T16:45:44;11.60;99.90
37478;DHT22;23334;54.316;10.182;2023-03-31T16:48:11;11.30;99.90
37478;DHT22;23334;54.316;10.182;2023-03-31T16:50:37;11.00;99.90
37478;DHT22;23334;54.316;10.182;2023-03-31T16:53:02;11.50;99.90
37478;DHT22;23334;54.316;10.182;2023-03-31T16:55:29;11.40;99.90
37478;DHT22;23334;54.316;10.182;2023-03-31T16:57:56;11.00;99.90
37478;DHT22;23334;54.316;10.182;2023-03-31T17:00:23;10.90;99.90
37478;DHT22;23334;54.316;10.182;2023-03-31T17:02:48;10.90;99.90
37478;DHT22;23334;54.316;10.182;2023-03-31T17:05:14;11.20;99.90
37478;DHT22;23334;54.316;10.182;2023-03-31T17:07:40;11.20;99.90
37478;DHT22;23334;54.316;10.182;2023-03-31T17:10:06;11.40;99.90
37478;DHT22;23334;54.316;10.182;2023-03-31T17:12:32;11.20;99.90
37478;DHT22;23334;54.316;10.182;2023-03-31T17:14:57;11.20;99.90
37478;DHT22;23334;54.316;10.182;2023-03-31T17:17:23;10.80;99.90
37478;DHT22;23334;54.316;10.182;2023-03-31T17:19:48;10.90;99.90
37478;DHT22;23334;54.316;10.182;2023-03-31T17:22:14;11.20;99.90
37478;DHT22;23334;54.316;10.182;2023-03-31T17:24:39;11.00;99.90
37478;DHT22;23334;54.316;10.182;2023-03-31T17:27:05;11.00;99.90
37478;DHT22;23334;54.316;10.182;2023-03-31T17:29:30;10.50;99.90
37478;DHT22;23334;54.316;10.182;2023-03-31T17:31:56;10.80;99.90
37478;DHT22;23334;54.316;10.182;2023-03-31T17:34:22;10.60;99.90
37478;DHT22;23334;54.316;10.182;2023-03-31T17:36:47;10.30;99.90
37478;DHT22;23334;54.316;10.182;2023-03-31T17:39:14;10.20;99.90
37478;DHT22;23334;54.316;10.182;2023-03-31T17:41:40;10.30;99.90
37478;DHT22;23334;54.316;10.182;2023-03-31T17:44:06;9.90;99.90
37478;DHT22;23334;54.316;10.182;2023-03-31T17:46:33;10.30;99.90
37478;DHT22;23334;54.316;10.182;2023-03-31T17:48:59;9.90;99.90
37478;DHT22;23334;54.316;10.182;2023-03-31T17:51:25;9.90;99.90
37478;DHT22;23334;54.316;10.182;2023-03-31T17:53:51;10.00;99.90
37478;DHT22;23334;54.316;10.182;2023-03-31T17:56:17;10.00;99.90
37478;DHT22;23334;54.316;10.182;2023-03-31T17:58:43;9.90;99.90
37478;DHT22;23334;54.316;10.182;2023-03-31T18:01:09;9.60;99.90
37478;DHT22;23334;54.316;10.182;2023-03-31T18:03:36;9.70;99.90
37478;DHT22;23334;54.316;10.182;2023-03-31T18:06:10;10.00;99.90
37478;DHT22;23334;54.316;10.182;2023-03-31T18:08:37;9.70;99.90
37478;DHT22;23334;54.316;10.182;2023-03-31T18:11:04;9.60;99.90
37478;DHT22;23334;54.316;10.182;2023-03-31T18:13:30;9.60;99.90
37478;DHT22;23334;54.316;10.182;2023-03-31T18:15:56;9.90;99.90
37478;DHT22;23334;54.316;10.182;2023-03-31T18:18:22;9.40;99.90
37478;DHT22;23334;54.316;10.182;2023-03-31T18:20:51;9.70;99.90
37478;DHT22;23334;54.316;10.182;2023-03-31T18:23:17;9.30;99.90
37478;DHT22;23334;54.316;10.182;2023-03-31T18:25:42;9.90;99.90
37478;DHT22;23334;54.316;10.182;2023-03-31T18:28:13;9.90;99.90
37478;DHT22;23334;54.316;10.182;2023-03-31T18:30:39;9.90;99.90
37478;DHT22;23334;54.316;10.182;2023-03-31T18:33:05;9.80;99.90
37478;DHT22;23334;54.316;10.182;2023-03-31T18:35:31;9.80;99.90
37478;DHT22;23334;54.316;10.182;2023-03-31T18:37:57;9.80;99.90
37478;DHT22;23334;54.316;10.182;2023-03-31T18:40:23;9.50;99.90
37478;DHT22;23334;54.316;10.182;2023-03-31T18:42:48;9.10;99.90
37478;DHT22;23334;54.316;10.182;2023-03-31T18:45:15;9.70;99.90
37478;DHT22;23334;54.316;10.182;2023-03-31T18:47:41;9.70;99.90
37478;DHT22;23334;54.316;10.182;2023-03-31T18:50:07;9.70;99.90
37478;DHT22;23334;54.316;10.182;2023-03-31T18:52:33;9.60;99.90
37478;DHT22;23334;54.316;10.182;2023-03-31T18:55:00;9.60;99.90
37478;DHT22;23334;54.316;10.182;2023-03-31T18:57:27;12.10;99.90
37478;DHT22;23334;54.316;10.182;2023-03-31T18:59:52;9.40;99.90
37478;DHT22;23334;54.316;10.182;2023-03-31T19:02:18;9.20;99.90
37478;DHT22;23334;54.316;10.182;2023-03-31T19:07:11;9.50;99.90
37478;DHT22;23334;54.316;10.182;2023-03-31T19:09:36;9.40;99.90
37478;DHT22;23334;54.316;10.182;2023-03-31T19:12:02;9.40;99.90
37478;DHT22;23334;54.316;10.182;2023-03-31T19:14:28;9.30;99.90
37478;DHT22;23334;54.316;10.182;2023-03-31T19:16:54;9.00;99.90
37478;DHT22;23334;54.316;10.182;2023-03-31T19:19:20;8.80;99.90
37478;DHT22;23334;54.316;10.182;2023-03-31T19:21:45;10.10;99.90
37478;DHT22;23334;54.316;10.182;2023-03-31T19:24:11;10.00;99.90
37478;DHT22;23334;54.316;10.182;2023-03-31T19:26:36;9.30;99.90
37478;DHT22;23334;54.316;10.182;2023-03-31T19:29:03;9.30;99.90
37478;DHT22;23334;54.316;10.182;2023-03-31T19:31:29;8.90;99.90
37478;DHT22;23334;54.316;10.182;2023-03-31T19:33:57;8.90;99.90
37478;DHT22;23334;54.316;10.182;2023-03-31T19:36:23;9.30;99.90
37478;DHT22;23334;54.316;10.182;2023-03-31T19:38:48;9.30;99.90
37478;DHT22;23334;54.316;10.182;2023-03-31T19:41:14;9.30;99.90
37478;DHT22;23334;54.316;10.182;2023-03-31T19:43:43;9.50;99.90
37478;DHT22;23334;54.316;10.182;2023-03-31T19:46:11;9.50;99.90
37478;DHT22;23334;54.316;10.182;2023-03-31T19:48:38;9.20;99.90
37478;DHT22;23334;54.316;10.182;2023-03-31T19:51:04;9.40;99.90
37478;DHT22;23334;54.316;10.182;2023-03-31T19:53:31;9.40;99.90
37478;DHT22;23334;54.316;10.182;2023-03-31T19:56:07;9.70;99.90
37478;DHT22;23334;54.316;10.182;2023-03-31T19:58:34;9.50;99.90
37478;DHT22;23334;54.316;10.182;2023-03-31T20:01:01;9.40;99.90
37478;DHT22;23334;54.316;10.182;2023-03-31T20:03:28;9.40;99.90
37478;DHT22;23334;54.316;10.182;2023-03-31T20:06:04;9.40;99.90
37478;DHT22;23334;54.316;10.182;2023-03-31T20:08:31;9.90;99.90
37478;DHT22;23334;54.316;10.182;2023-03-31T20:11:00;9.50;99.90
37478;DHT22;23334;54.316;10.182;2023-03-31T20:13:25;10.60;99.90
37478;DHT22;23334;54.316;10.182;2023-03-31T20:15:59;10.00;99.90
37478;DHT22;23334;54.316;10.182;2023-03-31T20:18:26;9.60;99.90
37478;DHT22;23334;54.316;10.182;2023-03-31T20:23:32;10.00;99.90